Time,TemperatureF,DewpointF,PressureIn,WindDirection,WindDirectionDegrees,WindSpeedMPH,WindSpeedGustMPH,Humidity,HourlyPrecipIn,Conditions,Clouds,dailyrainin,SoftwareType,DateUTC
2013-05-01 00:27:00,28.2,18.3,29.48,NNE,33,6.0,14.0,66,0.00,,,0.00,Weather View 32 v70,2013-05-01 08:27:00,
2013-05-01 00:30:00,28.2,18.3,29.48,NNE,33,6.0,14.0,66,0.00,,,0.00,Weather View 32 v70,2013-05-01 08:30:00,
2013-05-01 00:57:00,27.8,17.9,29.48,NNE,12,0.0,14.0,66,0.00,,,0.00,Weather View 32 v70,2013-05-01 08:57:00,
2013-05-01 01:27:00,27.5,17.6,29.48,NNE,33,3.0,13.0,66,0.00,,,0.00,Weather View 32 v70,2013-05-01 09:27:00,
2013-05-01 01:30:00,27.5,17.6,29.48,NNE,33,3.0,13.0,66,0.00,,,0.00,Weather View 32 v70,2013-05-01 09:30:00,
2013-05-01 01:58:00,27.1,17.6,29.47,NNE,28,1.0,10.0,67,0.00,,,0.00,Weather View 32 v70,2013-05-01 09:58:00,
2013-05-01 02:28:00,26.7,17.9,29.47,NE,36,6.0,11.0,69,0.00,,,0.00,Weather View 32 v70,2013-05-01 10:28:00,
2013-05-01 02:30:00,26.7,17.9,29.47,NE,36,6.0,11.0,69,0.00,,,0.00,Weather View 32 v70,2013-05-01 10:30:00,
2013-05-01 02:58:00,26.2,18.4,29.46,NNE,29,3.0,11.0,72,0.00,,,0.00,Weather View 32 v70,2013-05-01 10:58:00,
2013-05-01 03:28:00,25.7,18.6,29.45,NNE,32,2.0,10.0,74,0.00,,,0.00,Weather View 32 v70,2013-05-01 11:28:00,
2013-05-01 03:30:00,25.7,18.6,29.45,NNE,32,2.0,10.0,74,0.00,,,0.00,Weather View 32 v70,2013-05-01 11:30:00,
2013-05-01 03:58:00,25.6,19.1,29.44,NNE,28,6.0,10.0,76,0.00,,,0.00,Weather View 32 v70,2013-05-01 11:58:00,
2013-05-01 04:28:00,25.7,18.6,29.43,NNE,32,5.0,10.0,74,0.00,,,0.00,Weather View 32 v70,2013-05-01 12:28:00,
2013-05-01 04:30:00,25.7,18.6,29.43,NNE,32,5.0,10.0,74,0.00,,,0.00,Weather View 32 v70,2013-05-01 12:30:00,
2013-05-01 04:58:00,25.9,17.5,29.43,NE,40,4.0,10.0,70,0.00,,,0.00,Weather View 32 v70,2013-05-01 12:58:00,
2013-05-01 05:28:00,25.8,18.0,29.41,NNE,29,3.0,10.0,72,0.00,,,0.00,Weather View 32 v70,2013-05-01 13:28:00,
2013-05-01 05:30:00,25.8,18.0,29.41,NNE,29,3.0,10.0,72,0.00,,,0.00,Weather View 32 v70,2013-05-01 13:30:00,
2013-05-01 05:57:00,25.2,18.7,29.41,NNE,21,4.0,10.0,76,0.00,,,0.00,Weather View 32 v70,2013-05-01 13:57:00,
2013-05-01 06:27:00,25.2,18.7,29.40,NE,44,1.0,10.0,76,0.00,,,0.00,Weather View 32 v70,2013-05-01 14:27:00,
2013-05-01 06:30:00,25.2,18.7,29.40,NE,44,1.0,10.0,76,0.00,,,0.00,Weather View 32 v70,2013-05-01 14:30:00,
2013-05-01 06:58:00,25.3,19.4,29.40,NNE,20,3.0,9.0,78,0.00,,,0.00,Weather View 32 v70,2013-05-01 14:58:00,
2013-05-01 07:28:00,25.3,19.4,29.39,NE,38,4.0,8.0,78,0.00,,,0.00,Weather View 32 v70,2013-05-01 15:28:00,
2013-05-01 07:30:00,25.3,19.4,29.39,NE,38,4.0,8.0,78,0.00,,,0.00,Weather View 32 v70,2013-05-01 15:30:00,
2013-05-01 07:58:00,26.1,18.9,29.38,NNE,26,4.0,8.0,74,0.00,,,0.00,Weather View 32 v70,2013-05-01 15:58:00,
2013-05-01 08:28:00,26.2,19.7,29.38,North,10,1.0,10.0,76,0.00,,,0.00,Weather View 32 v70,2013-05-01 16:28:00,
2013-05-01 08:30:00,26.2,19.7,29.38,North,10,1.0,10.0,76,0.00,,,0.00,Weather View 32 v70,2013-05-01 16:30:00,
2013-05-01 08:58:00,28.0,19.5,29.37,NNE,30,5.0,10.0,70,0.00,,,0.00,Weather View 32 v70,2013-05-01 16:58:00,
2013-05-01 09:28:00,29.6,18.2,29.36,ENE,59,4.0,14.0,62,0.00,,,0.00,Weather View 32 v70,2013-05-01 17:28:00,
2013-05-01 09:30:00,29.6,18.2,29.36,ENE,59,4.0,14.0,62,0.00,,,0.00,Weather View 32 v70,2013-05-01 17:30:00,
2013-05-01 09:58:00,30.5,17.5,29.36,NE,40,8.0,14.0,58,0.00,,,0.00,Weather View 32 v70,2013-05-01 17:58:00,
2013-05-01 10:27:00,31.5,17.2,29.35,NE,34,3.0,14.0,55,0.00,,,0.00,Weather View 32 v70,2013-05-01 18:27:00,
2013-05-01 10:30:00,31.5,17.2,29.35,NE,34,3.0,14.0,55,0.00,,,0.00,Weather View 32 v70,2013-05-01 18:30:00,
2013-05-01 10:57:00,33.5,17.7,29.34,NNE,23,3.0,13.0,52,0.00,,,0.00,Weather View 32 v70,2013-05-01 18:57:00,
2013-05-01 11:27:00,34.3,17.6,29.34,NNE,22,3.0,12.0,50,0.00,,,0.00,Weather View 32 v70,2013-05-01 19:27:00,
2013-05-01 11:30:00,34.6,17.9,29.34,NNE,30,4.0,12.0,50,0.00,,,0.00,Weather View 32 v70,2013-05-01 19:30:00,
2013-05-01 11:58:00,35.9,18.1,29.33,NE,44,3.0,12.0,48,0.00,,,0.00,Weather View 32 v70,2013-05-01 19:58:00,
2013-05-01 12:28:00,37.2,18.8,29.32,NNE,20,3.0,10.0,47,0.00,,,0.00,Weather View 32 v70,2013-05-01 20:28:00,
2013-05-01 12:59:00,37.4,19.5,29.31,NNW,328,5.0,12.0,48,0.00,,,0.00,Weather View 32 v70,2013-05-01 20:59:00,
2013-05-01 13:28:00,38.1,20.1,29.31,North,352,5.0,12.0,48,0.00,,,0.00,Weather View 32 v70,2013-05-01 21:28:00,
2013-05-01 13:58:00,38.1,20.1,29.31,NNW,329,5.0,12.0,48,0.00,,,0.00,Weather View 32 v70,2013-05-01 21:58:00,
2013-05-01 14:28:00,38.0,19.5,29.30,North,354,7.0,12.0,47,0.00,,,0.00,Weather View 32 v70,2013-05-01 22:28:00,
2013-05-01 14:58:00,38.0,19.0,29.29,NNW,346,5.0,14.0,46,0.00,,,0.00,Weather View 32 v70,2013-05-01 22:58:00,
2013-05-01 15:28:00,38.2,18.7,29.29,NW,305,3.0,14.0,45,0.00,,,0.00,Weather View 32 v70,2013-05-01 23:28:00,
2013-05-01 15:57:00,38.5,19.0,29.28,NNE,28,4.0,12.0,45,0.00,,,0.00,Weather View 32 v70,2013-05-01 23:57:00,
2013-05-01 16:27:00,38.8,18.7,29.27,North,349,4.0,12.0,44,0.00,,,0.00,Weather View 32 v70,2013-05-02 00:27:00,
2013-05-01 16:58:00,39.2,18.0,29.27,NE,36,10.0,12.0,42,0.00,,,0.00,Weather View 32 v70,2013-05-02 00:58:00,
2013-05-01 17:28:00,38.4,17.8,29.27,NNW,338,6.0,12.0,43,0.00,,,0.00,Weather View 32 v70,2013-05-02 01:28:00,
2013-05-01 17:58:00,37.5,15.9,29.27,NNW,348,6.0,13.0,41,0.00,,,0.00,Weather View 32 v70,2013-05-02 01:58:00,
2013-05-01 18:28:00,36.9,15.4,29.27,NNE,31,3.0,13.0,41,0.00,,,0.00,Weather View 32 v70,2013-05-02 02:28:00,
2013-05-01 18:58:00,36.6,15.1,29.27,North,351,6.0,13.0,41,0.00,,,0.00,Weather View 32 v70,2013-05-02 02:58:00,
2013-05-01 19:28:00,35.3,13.9,29.28,NNE,33,5.0,13.0,41,0.00,,,0.00,Weather View 32 v70,2013-05-02 03:28:00,
2013-05-01 19:58:00,33.6,13.5,29.28,NNE,15,4.0,13.0,43,0.00,,,0.00,Weather View 32 v70,2013-05-02 03:58:00,
2013-05-01 20:02:00,33.6,13.5,29.28,NNE,15,4.0,13.0,43,0.00,,,0.00,Weather View 32 v70,2013-05-02 04:02:00,
2013-05-01 20:28:00,32.0,12.5,29.28,NNE,12,3.0,13.0,44,0.00,,,0.00,Weather View 32 v70,2013-05-02 04:28:00,
2013-05-01 20:57:00,31.0,12.1,29.29,North,11,4.0,11.0,45,0.00,,,0.00,Weather View 32 v70,2013-05-02 04:57:00,
2013-05-01 21:02:00,31.0,12.1,29.29,North,11,4.0,11.0,45,0.00,,,0.00,Weather View 32 v70,2013-05-02 05:02:00,
2013-05-01 21:28:00,29.7,11.4,29.30,North,351,10.0,11.0,46,0.00,,,0.00,Weather View 32 v70,2013-05-02 05:28:00,
2013-05-01 21:58:00,28.3,11.1,29.30,North,10,4.0,11.0,48,0.00,,,0.00,Weather View 32 v70,2013-05-02 05:58:00,
2013-05-01 22:04:00,28.3,11.1,29.30,North,10,4.0,11.0,48,0.00,,,0.00,Weather View 32 v70,2013-05-02 06:04:00,
2013-05-01 22:28:00,27.7,11.0,29.31,North,2,3.0,11.0,49,0.00,,,0.00,Weather View 32 v70,2013-05-02 06:28:00,
2013-05-01 22:58:00,26.8,10.6,29.31,NNW,337,1.0,10.0,50,0.00,,,0.00,Weather View 32 v70,2013-05-02 06:58:00,
2013-05-01 23:04:00,26.8,10.6,29.31,NNW,337,1.0,10.0,50,0.00,,,0.00,Weather View 32 v70,2013-05-02 07:04:00,
2013-05-01 23:28:00,26.4,11.6,29.32,NNW,337,2.0,6.0,53,0.00,,,0.00,Weather View 32 v70,2013-05-02 07:28:00,
2013-05-01 23:58:00,26.1,11.7,29.33,NNW,339,1.0,5.0,54,0.00,,,0.00,Weather View 32 v70,2013-05-02 07:58:00,